CheckWX is a tool to help pilots better visualize weather data.  It is not intended as a substitute for an official pre-flight weather briefing.

04:53:13 UTC

KTMK METAR
Tillamook Airport
Tillamook, Oregon, USA
Current

18 mins ago

KTMK 260435Z AUTO 00000KT 7SM CLR 13/11 A3021 RMK AO2
Observed
Aug-26 @ 04:35 UTC
Visibility
7 SM
Flight Rules
VFR
Cloud Levels
  • Clear skies
Temperature
13°C / 55°F
Dewpoint
11°C / 52°F
Humidity
88%
Altimeter
30.21" Hg
Pressure
1023.02 hPa
Previous

38 mins ago

KTMK 260415Z AUTO 00000KT 7SM CLR 14/11 A3020 RMK AO2
Observed
Aug-26 @ 04:15 UTC
Visibility
7 SM
Flight Rules
VFR
Cloud Levels
  • Clear skies
Temperature
14°C / 57°F
Dewpoint
11°C / 52°F
Humidity
82%
Altimeter
30.2" Hg
Pressure
1022.72 hPa
Previous

58 mins ago

KTMK 260355Z AUTO 00000KT 7SM CLR 15/11 A3020 RMK AO2
Observed
Aug-26 @ 03:55 UTC
Visibility
7 SM
Flight Rules
VFR
Cloud Levels
  • Clear skies
Temperature
15°C / 59°F
Dewpoint
11°C / 52°F
Humidity
77%
Altimeter
30.2" Hg
Pressure
1022.72 hPa